createdAt,value
2023-01-05T00:01:08.735Z,157.90
2023-01-05T00:06:14.134Z,180.75
2023-01-05T00:11:37.456Z,184.35
2023-01-05T00:16:57.784Z,158.55
2023-01-05T00:22:19.552Z,155.35
2023-01-05T00:27:21.648Z,142.38
2023-01-05T00:32:24.109Z,133.73
2023-01-05T00:37:34.667Z,127.47
2023-01-05T00:42:38.374Z,152.45
2023-01-05T00:47:41.006Z,144.45
2023-01-05T00:52:44.125Z,111.22
2023-01-05T00:57:46.614Z,89.10
2023-01-05T01:02:52.541Z,78.28
2023-01-05T01:07:58.660Z,83.20
2023-01-05T01:13:00.773Z,80.25
2023-01-05T01:18:02.946Z,79.53
2023-01-05T01:23:05.978Z,80.40
2023-01-05T01:28:08.095Z,75.13
2023-01-05T01:33:10.331Z,77.20
2023-01-05T01:38:12.616Z,82.55
2023-01-05T01:43:17.460Z,76.43
2023-01-05T01:48:19.555Z,76.00
2023-01-05T01:53:26.014Z,75.43
2023-01-05T01:58:31.546Z,72.85
2023-01-05T02:03:33.751Z,80.68
2023-01-05T02:08:35.905Z,89.47
2023-01-05T02:13:55.677Z,89.63
2023-01-05T02:19:23.974Z,59.47
2023-01-05T02:25:04.629Z,86.35
2023-01-05T02:30:36.928Z,75.37
2023-01-05T02:35:42.798Z,90.57
2023-01-05T02:40:50.164Z,81.97
2023-01-05T02:45:52.463Z,86.65
2023-01-05T02:51:01.694Z,85.82
2023-01-05T02:56:25.590Z,95.20
2023-01-05T03:01:34.374Z,81.82
2023-01-05T03:06:47.303Z,79.80
2023-01-05T03:12:18.270Z,78.07
2023-01-05T03:22:51.623Z,88.18
2023-01-05T03:28:16.761Z,78.90
2023-01-05T03:33:53.990Z,76.63
2023-01-05T03:38:58.978Z,74.60
2023-01-05T03:44:01.279Z,69.43
2023-01-05T03:49:04.573Z,69.65
2023-01-05T03:54:06.825Z,70.63
2023-01-05T03:59:08.947Z,75.72
2023-01-05T04:04:11.068Z,66.32
2023-01-05T04:09:13.177Z,72.43
2023-01-05T04:14:15.272Z,69.85
2023-01-05T04:19:17.399Z,61.08
2023-01-05T04:24:19.515Z,59.53
2023-01-05T04:29:24.133Z,61.88
2023-01-05T04:34:26.234Z,61.17
2023-01-05T04:39:28.354Z,47.78
2023-01-05T04:44:31.606Z,56.45
2023-01-05T04:49:33.679Z,48.10
2023-01-05T04:54:35.744Z,44.70
2023-01-05T04:59:37.838Z,37.53
2023-01-05T05:04:39.907Z,39.90
2023-01-05T05:09:42.020Z,38.67
2023-01-05T05:14:44.142Z,37.40
2023-01-05T05:19:46.294Z,34.88
2023-01-05T05:24:48.397Z,32.58
2023-01-05T05:29:50.450Z,33.78
2023-01-05T05:34:52.513Z,35.67
2023-01-05T05:39:54.545Z,35.25
2023-01-05T05:44:56.694Z,29.92
2023-01-05T05:49:58.784Z,33.83
2023-01-05T05:55:00.960Z,28.40
2023-01-05T06:00:03.756Z,29.40
2023-01-05T06:05:06.586Z,25.55
2023-01-05T06:10:09.202Z,32.42
2023-01-05T06:15:11.659Z,29.85
2023-01-05T06:20:16.394Z,34.58
2023-01-05T06:25:22.419Z,31.90
2023-01-05T06:30:27.143Z,39.92
2023-01-05T06:35:29.336Z,33.20
2023-01-05T06:40:31.535Z,27.95
2023-01-05T06:45:33.979Z,41.40
2023-01-05T06:50:36.420Z,37.85
2023-01-05T06:55:38.463Z,42.97
2023-01-05T07:00:40.601Z,46.22
2023-01-05T07:05:42.871Z,51.67
2023-01-05T07:10:44.982Z,43.08
2023-01-05T07:15:47.063Z,48.75
2023-01-05T07:20:55.052Z,67.18
2023-01-05T07:26:02.981Z,55.38
2023-01-05T07:31:07.874Z,47.83
2023-01-05T07:36:10.343Z,71.65
2023-01-05T07:41:12.454Z,61.53
2023-01-05T07:46:16.082Z,65.13
2023-01-05T07:51:18.624Z,47.50
2023-01-05T07:56:20.765Z,43.28
2023-01-05T08:01:23.104Z,45.65
2023-01-05T08:06:25.538Z,46.80
2023-01-05T08:11:27.630Z,54.80
2023-01-05T08:16:31.776Z,55.42
2023-01-05T08:21:34.004Z,45.17
2023-01-05T08:26:36.241Z,48.28
2023-01-05T08:31:40.417Z,54.78
2023-01-05T08:36:44.054Z,49.13
2023-01-05T08:41:53.333Z,50.08
2023-01-05T08:46:59.117Z,45.10
2023-01-05T08:52:01.301Z,59.85
2023-01-05T08:57:15.166Z,50.05
2023-01-05T09:02:23.441Z,38.97
2023-01-05T09:07:28.779Z,38.90
2023-01-05T09:12:33.196Z,40.97
2023-01-05T09:17:38.673Z,45.03
2023-01-05T09:22:40.880Z,39.05
2023-01-05T09:27:43.268Z,41.05
2023-01-05T09:32:45.375Z,44.88
2023-01-05T09:37:47.635Z,37.95
2023-01-05T09:42:49.808Z,43.83
2023-01-05T09:47:54.280Z,34.30
2023-01-05T09:53:00.204Z,30.95
2023-01-05T09:58:17.906Z,29.58
2023-01-05T10:04:01.892Z,26.23
2023-01-05T10:08:51.285Z,26.85
2023-01-05T10:13:59.960Z,26.10
2023-01-05T10:19:03.076Z,25.92
2023-01-05T10:24:18.331Z,24.00
2023-01-05T10:29:27.795Z,24.27
2023-01-05T10:34:50.837Z,25.20
2023-01-05T10:40:21.902Z,22.70
2023-01-05T10:45:29.432Z,26.52
2023-01-05T10:50:38.355Z,24.17
2023-01-05T10:55:50.677Z,25.55
2023-01-05T11:00:56.817Z,25.10
2023-01-05T11:05:59.873Z,25.70
2023-01-05T11:11:08.136Z,44.85
2023-01-05T11:16:34.972Z,38.67
2023-01-05T11:22:12.721Z,31.90
2023-01-05T11:27:20.940Z,29.77
2023-01-05T11:32:25.914Z,25.75
2023-01-05T11:37:30.930Z,30.17
2023-01-05T11:42:36.015Z,20.80
2023-01-05T11:47:45.908Z,23.90
2023-01-05T11:58:00.013Z,21.15
2023-01-05T12:03:27.142Z,21.75
2023-01-05T12:08:38.577Z,23.27
2023-01-05T12:13:49.276Z,23.45
2023-01-05T12:19:17.117Z,24.08
2023-01-05T12:25:02.139Z,20.45
2023-01-05T12:36:37.202Z,18.00
2023-01-05T12:41:45.338Z,16.08
2023-01-05T12:47:02.892Z,16.90
2023-01-05T12:52:16.375Z,18.23
2023-01-05T12:57:33.138Z,17.23
2023-01-05T13:02:37.631Z,16.73
2023-01-05T13:08:03.278Z,16.83
2023-01-05T13:13:15.143Z,18.92
2023-01-05T13:18:19.846Z,17.80
2023-01-05T13:23:27.820Z,15.45
2023-01-05T13:28:31.944Z,17.75
2023-01-05T13:33:59.833Z,14.88
2023-01-05T13:39:13.304Z,19.80
2023-01-05T13:44:25.349Z,16.08
2023-01-05T13:49:37.717Z,14.82
2023-01-05T13:55:03.202Z,16.70
2023-01-05T14:00:12.369Z,17.55
2023-01-05T14:05:24.769Z,18.08
2023-01-05T14:10:31.185Z,17.63
2023-01-05T14:15:40.650Z,16.63
2023-01-05T14:20:49.467Z,22.02
2023-01-05T14:26:04.867Z,15.07
2023-01-05T14:31:15.840Z,17.02
2023-01-05T14:36:34.893Z,16.83
2023-01-05T14:41:37.173Z,16.60
2023-01-05T14:47:10.141Z,15.43
2023-01-05T14:52:19.066Z,16.98
2023-01-05T14:57:35.694Z,22.77
2023-01-05T15:03:02.064Z,22.20
2023-01-05T15:08:48.860Z,19.58
2023-01-05T15:14:33.106Z,19.52
2023-01-05T15:19:37.782Z,27.98
2023-01-05T15:25:00.422Z,49.03
2023-01-05T15:30:05.247Z,36.42
2023-01-05T15:35:17.180Z,30.38
2023-01-05T15:40:22.155Z,29.02
2023-01-05T15:45:24.200Z,29.02
2023-01-05T15:50:32.946Z,26.85
2023-01-05T15:55:35.137Z,40.83
2023-01-05T16:00:37.588Z,41.40
2023-01-05T16:05:39.822Z,31.52
2023-01-05T16:11:01.244Z,33.30
2023-01-05T16:16:11.425Z,38.13
2023-01-05T16:21:18.878Z,36.60
2023-01-05T16:26:21.460Z,40.33
2023-01-05T16:31:31.040Z,40.88
2023-01-05T16:36:33.263Z,46.17
2023-01-05T16:41:55.417Z,53.00
2023-01-05T16:47:09.628Z,48.60
2023-01-05T16:52:23.950Z,72.28
2023-01-05T16:57:32.669Z,57.03
2023-01-05T17:02:44.821Z,60.67
2023-01-05T17:07:50.008Z,60.45
2023-01-05T17:13:07.063Z,58.17
2023-01-05T17:18:18.390Z,63.35
2023-01-05T17:23:28.884Z,51.17
2023-01-05T17:28:31.077Z,51.50
2023-01-05T17:33:33.544Z,42.55
2023-01-05T17:38:35.732Z,52.67
2023-01-05T17:43:37.869Z,44.72
2023-01-05T17:48:40.004Z,52.47
2023-01-05T17:53:42.078Z,53.78
2023-01-05T17:58:44.238Z,56.83
2023-01-05T18:08:53.287Z,55.72
2023-01-05T18:13:55.427Z,51.63
2023-01-05T18:18:57.572Z,59.78
2023-01-05T18:23:59.815Z,60.70
2023-01-05T18:29:02.055Z,61.72
2023-01-05T18:34:04.158Z,72.60
2023-01-05T18:39:07.275Z,59.10
2023-01-05T18:44:09.374Z,62.17
2023-01-05T18:49:12.676Z,49.58
2023-01-05T18:54:14.828Z,59.67
2023-01-05T18:59:16.962Z,66.15
2023-01-05T19:04:19.451Z,67.72
2023-01-05T19:09:21.667Z,68.72
2023-01-05T19:14:23.866Z,80.72
2023-01-05T19:19:26.104Z,53.97
2023-01-05T19:24:28.275Z,67.30
2023-01-05T19:29:30.485Z,84.88
2023-01-05T19:34:32.564Z,98.22
2023-01-05T19:39:35.101Z,88.10
2023-01-05T19:44:37.231Z,102.68
2023-01-05T19:49:39.316Z,86.90
2023-01-05T19:54:42.262Z,73.45
2023-01-05T19:59:44.327Z,105.85
2023-01-05T20:04:47.115Z,131.18
2023-01-05T20:09:50.758Z,119.13
2023-01-05T20:14:52.882Z,103.25
2023-01-05T20:19:55.071Z,99.82
2023-01-05T20:24:57.183Z,95.43
2023-01-05T20:29:59.305Z,71.13
2023-01-05T20:35:01.535Z,74.03
2023-01-05T20:40:04.740Z,113.38
2023-01-05T20:45:07.801Z,145.10
2023-01-05T20:50:10.155Z,75.00
2023-01-05T20:55:12.307Z,63.78
2023-01-05T21:00:16.592Z,69.57
2023-01-05T21:05:18.817Z,66.78
2023-01-05T21:10:20.992Z,90.90
2023-01-05T21:15:23.322Z,88.28
2023-01-05T21:20:27.413Z,123.47
2023-01-05T21:25:30.116Z,155.32
2023-01-05T21:30:52.243Z,170.38
2023-01-05T21:35:54.631Z,166.93
2023-01-05T21:41:05.157Z,181.35
2023-01-05T21:46:12.515Z,169.05
2023-01-05T21:51:33.114Z,149.48
2023-01-05T22:01:40.853Z,86.78
2023-01-05T22:06:43.004Z,59.97
2023-01-05T22:11:45.237Z,42.42
2023-01-05T22:16:47.807Z,39.40
2023-01-05T22:21:49.932Z,40.75
2023-01-05T22:26:52.051Z,38.88
2023-01-05T22:31:54.263Z,39.95
2023-01-05T22:36:56.333Z,50.13
2023-01-05T22:41:58.425Z,54.60
2023-01-05T22:47:00.559Z,43.80
2023-01-05T22:52:03.640Z,45.85
2023-01-05T22:57:05.864Z,51.03
2023-01-05T23:02:08.784Z,49.13
2023-01-05T23:07:11.284Z,68.50
2023-01-05T23:12:13.399Z,78.40
2023-01-05T23:17:15.513Z,81.60
2023-01-05T23:22:17.555Z,91.15
2023-01-05T23:27:19.581Z,94.45
2023-01-05T23:32:21.787Z,112.07
2023-01-05T23:37:23.881Z,99.93
2023-01-05T23:42:51.946Z,95.45
2023-01-05T23:47:54.176Z,90.28
2023-01-05T23:52:56.232Z,93.05
2023-01-05T23:57:58.914Z,91.70
